createdAt,value
2022-09-13T00:01:02.024Z,88.60
2022-09-13T00:03:30.352Z,88.60
2022-09-13T00:05:56.969Z,88.60
2022-09-13T00:08:24.060Z,88.50
2022-09-13T00:10:53.691Z,88.50
2022-09-13T00:13:20.275Z,90.00
2022-09-13T00:15:49.072Z,89.70
2022-09-13T00:18:16.737Z,88.40
2022-09-13T00:20:43.359Z,90.60
2022-09-13T00:23:10.863Z,88.40
2022-09-13T00:25:37.945Z,88.30
2022-09-13T00:30:32.098Z,89.00
2022-09-13T00:32:58.673Z,90.50
2022-09-13T00:35:25.216Z,90.80
2022-09-13T00:37:51.760Z,91.50
2022-09-13T00:42:45.511Z,88.50
2022-09-13T00:45:12.178Z,88.50
2022-09-13T00:48:04.893Z,90.40
2022-09-13T00:50:48.600Z,88.10
2022-09-13T00:53:37.513Z,90.80
2022-09-13T00:56:17.922Z,88.10
2022-09-13T00:58:58.836Z,88.20
2022-09-13T01:01:31.768Z,88.70
2022-09-13T01:03:58.724Z,88.20
2022-09-13T01:06:32.858Z,88.20
2022-09-13T01:09:04.423Z,88.10
2022-09-13T01:11:55.529Z,88.30
2022-09-13T01:14:23.645Z,88.50
2022-09-13T01:16:50.608Z,88.20
2022-09-13T01:19:17.433Z,88.50
2022-09-13T01:21:55.856Z,88.30
2022-09-13T01:24:36.813Z,88.10
2022-09-13T01:27:17.924Z,88.10
2022-09-13T01:30:03.090Z,88.10
2022-09-13T01:36:16.327Z,88.10
2022-09-13T01:39:06.179Z,88.10
2022-09-13T01:42:02.663Z,88.70
2022-09-13T01:44:40.499Z,88.00
2022-09-13T01:47:27.936Z,88.30
2022-09-13T01:50:11.565Z,88.10
2022-09-13T01:53:16.402Z,88.30
2022-09-13T01:55:56.708Z,88.10
2022-09-13T01:58:26.945Z,88.00
2022-09-13T02:01:31.841Z,88.10
2022-09-13T02:04:15.218Z,88.00
2022-09-13T02:06:46.565Z,88.00
2022-09-13T02:09:21.643Z,89.10
2022-09-13T02:11:53.723Z,87.90
2022-09-13T02:14:27.481Z,90.10
2022-09-13T02:17:15.174Z,87.90
2022-09-13T02:19:47.087Z,88.50
2022-09-13T02:22:18.073Z,88.00
2022-09-13T02:24:50.788Z,87.90
2022-09-13T02:27:23.560Z,88.00
2022-09-13T02:29:57.608Z,87.90
2022-09-13T02:32:32.928Z,88.60
2022-09-13T02:35:20.043Z,90.30
2022-09-13T02:37:51.645Z,87.80
2022-09-13T02:40:25.039Z,88.30
2022-09-13T02:43:08.441Z,91.50
2022-09-13T02:45:51.039Z,87.80
2022-09-13T02:48:29.628Z,87.80
2022-09-13T02:51:37.560Z,88.10
2022-09-13T02:54:32.986Z,88.20
2022-09-13T02:57:13.363Z,90.00
2022-09-13T02:59:39.945Z,87.90
2022-09-13T03:02:16.488Z,87.70
2022-09-13T03:04:43.185Z,90.40
2022-09-13T03:07:11.653Z,88.00
2022-09-13T03:09:57.021Z,88.70
2022-09-13T03:12:58.739Z,88.20
2022-09-13T03:16:00.596Z,89.40
2022-09-13T03:18:35.941Z,88.00
2022-09-13T03:21:53.403Z,89.60
2022-09-13T03:24:25.485Z,90.40
2022-09-13T03:27:11.870Z,90.70
2022-09-13T03:29:48.252Z,88.10
2022-09-13T03:32:23.588Z,90.80
2022-09-13T03:35:09.273Z,88.20
2022-09-13T03:38:00.608Z,90.70
2022-09-13T03:40:33.063Z,88.20
2022-09-13T03:43:22.312Z,88.80
2022-09-13T03:45:52.357Z,91.00
2022-09-13T03:48:20.451Z,91.10
2022-09-13T03:50:47.788Z,88.90
2022-09-13T03:53:19.648Z,90.10
2022-09-13T03:55:46.332Z,89.60
2022-09-13T03:58:15.404Z,88.30
2022-09-13T04:00:42.572Z,89.40
2022-09-13T04:03:09.295Z,89.40
2022-09-13T04:05:35.930Z,88.80
2022-09-13T04:08:05.609Z,87.80
2022-09-13T04:10:33.051Z,89.80
2022-09-13T04:13:02.608Z,87.60
2022-09-13T04:15:31.176Z,88.10
2022-09-13T04:17:58.019Z,87.70
2022-09-13T04:20:25.810Z,87.60
2022-09-13T04:22:53.522Z,87.60
2022-09-13T04:25:21.292Z,87.90
2022-09-13T04:27:49.086Z,87.50
2022-09-13T04:30:15.877Z,88.30
2022-09-13T04:32:45.174Z,88.80
2022-09-13T04:35:12.030Z,90.10
2022-09-13T04:37:39.103Z,91.10
2022-09-13T04:40:08.098Z,91.30
2022-09-13T04:42:35.147Z,91.20
2022-09-13T04:45:01.985Z,91.20
2022-09-13T04:47:28.549Z,91.10
2022-09-13T04:49:55.111Z,91.80
2022-09-13T04:52:21.622Z,92.10
2022-09-13T04:54:48.221Z,92.50
2022-09-13T04:57:16.492Z,92.70
2022-09-13T04:59:43.773Z,92.40
2022-09-13T05:02:10.601Z,92.60
2022-09-13T05:04:37.192Z,92.20
2022-09-13T05:07:04.684Z,91.80
2022-09-13T05:09:31.216Z,91.40
2022-09-13T05:14:24.725Z,90.60
2022-09-13T05:16:51.272Z,90.40
2022-09-13T05:19:17.958Z,90.20
2022-09-13T05:21:44.626Z,90.40
2022-09-13T05:24:11.769Z,90.00
2022-09-13T05:26:38.271Z,90.00
2022-09-13T05:29:05.233Z,90.30
2022-09-13T05:31:35.021Z,89.90
2022-09-13T05:34:04.853Z,90.10
2022-09-13T05:36:31.793Z,89.60
2022-09-13T05:39:26.068Z,89.60
2022-09-13T05:41:46.126Z,89.60
2022-09-13T05:44:13.775Z,89.50
2022-09-13T05:46:41.214Z,89.50
2022-09-13T05:49:07.757Z,89.40
2022-09-13T05:51:34.359Z,89.30
2022-09-13T05:54:00.865Z,89.20
2022-09-13T05:56:29.899Z,89.20
2022-09-13T05:58:56.653Z,89.10
2022-09-13T06:01:26.361Z,89.10
2022-09-13T06:03:58.025Z,89.40
2022-09-13T06:06:25.179Z,89.40
2022-09-13T06:08:56.057Z,89.10
2022-09-13T06:11:23.887Z,89.00
2022-09-13T06:13:50.785Z,89.00
2022-09-13T06:16:17.855Z,89.80
2022-09-13T06:18:45.082Z,90.10
2022-09-13T06:21:26.955Z,89.00
2022-09-13T06:23:55.841Z,88.90
2022-09-13T06:26:27.059Z,88.80
2022-09-13T06:28:55.901Z,88.70
2022-09-13T06:31:24.816Z,88.90
2022-09-13T06:33:57.493Z,90.20
2022-09-13T06:36:24.590Z,89.20
2022-09-13T06:38:51.432Z,89.50
2022-09-13T06:41:20.494Z,90.60
2022-09-13T06:43:50.620Z,90.40
2022-09-13T06:46:24.638Z,88.60
2022-09-13T06:48:52.559Z,88.80
2022-09-13T06:51:21.393Z,89.10
2022-09-13T06:53:49.440Z,89.30
2022-09-13T06:56:18.201Z,88.30
2022-09-13T06:58:46.479Z,88.60
2022-09-13T07:01:18.400Z,88.50
2022-09-13T07:03:50.156Z,88.50
2022-09-13T07:06:22.162Z,89.10
2022-09-13T07:08:51.564Z,90.00
2022-09-13T07:11:20.130Z,91.50
2022-09-13T07:13:54.794Z,90.40
2022-09-13T07:16:26.953Z,91.40
2022-09-13T07:19:07.914Z,91.90
2022-09-13T07:21:35.487Z,91.70
2022-09-13T07:24:02.344Z,90.40
2022-09-13T07:26:28.986Z,90.60
2022-09-13T07:28:58.969Z,90.50
2022-09-13T07:31:28.778Z,90.40
2022-09-13T07:34:00.571Z,90.50
2022-09-13T07:36:29.511Z,90.70
2022-09-13T07:38:56.262Z,90.20
2022-09-13T07:41:24.741Z,90.30
2022-09-13T07:43:51.998Z,91.30
2022-09-13T07:46:24.124Z,90.00
2022-09-13T07:48:53.851Z,90.50
2022-09-13T07:51:32.337Z,90.20
2022-09-13T07:54:01.746Z,90.20
2022-09-13T07:56:30.894Z,90.20
2022-09-13T07:59:00.706Z,91.10
2022-09-13T08:01:29.652Z,89.80
2022-09-13T08:04:05.392Z,90.00
2022-09-13T08:06:34.009Z,89.80
2022-09-13T08:09:01.144Z,91.00
2022-09-13T08:11:33.969Z,90.00
2022-09-13T08:14:01.199Z,90.60
2022-09-13T08:16:28.914Z,89.60
2022-09-13T08:18:57.575Z,89.00
2022-09-13T08:21:25.177Z,90.70
2022-09-13T08:23:56.485Z,90.80
2022-09-13T08:28:55.161Z,90.40
2022-09-13T08:31:22.862Z,88.60
2022-09-13T08:33:49.703Z,90.80
2022-09-13T08:36:17.109Z,90.70
2022-09-13T08:38:52.535Z,89.60
2022-09-13T08:41:41.869Z,90.70
2022-09-13T08:44:34.689Z,88.90
2022-09-13T08:47:13.095Z,88.80
2022-09-13T08:52:32.935Z,88.30
2022-09-13T08:55:08.234Z,89.20
2022-09-13T08:57:53.040Z,88.90
2022-09-13T09:00:25.734Z,90.40
2022-09-13T09:03:04.312Z,88.40
2022-09-13T09:05:39.933Z,90.80
2022-09-13T09:08:34.261Z,88.80
2022-09-13T09:11:13.426Z,89.40
2022-09-13T09:13:52.121Z,88.80
2022-09-13T09:16:39.229Z,90.40
2022-09-13T09:19:27.217Z,91.40
2022-09-13T09:21:53.842Z,91.60
2022-09-13T09:24:25.344Z,89.80
2022-09-13T09:29:28.189Z,88.70
2022-09-13T09:32:28.639Z,88.70
2022-09-13T09:35:21.498Z,89.10
2022-09-13T09:38:03.997Z,88.90
2022-09-13T09:40:32.590Z,91.80
2022-09-13T09:42:59.411Z,90.90
2022-09-13T09:45:35.727Z,91.50
2022-09-13T09:48:12.601Z,91.10
2022-09-13T09:50:45.176Z,89.50
2022-09-13T09:53:16.680Z,91.80
2022-09-13T09:55:46.806Z,91.50
2022-09-13T10:00:57.813Z,91.80
2022-09-13T10:03:29.667Z,90.10
2022-09-13T10:06:19.318Z,90.30
2022-09-13T10:08:56.212Z,90.10
2022-09-13T10:11:27.061Z,90.80
2022-09-13T10:14:02.172Z,90.20
2022-09-13T10:16:30.429Z,90.50
2022-09-13T10:19:25.468Z,91.80
2022-09-13T10:22:03.535Z,90.60
2022-09-13T10:24:30.528Z,90.40
2022-09-13T10:26:58.625Z,90.50
2022-09-13T10:29:27.709Z,90.50
2022-09-13T10:31:57.646Z,90.50
2022-09-13T10:34:31.733Z,90.70
2022-09-13T10:37:05.513Z,90.70
2022-09-13T10:39:36.300Z,90.40
2022-09-13T10:42:06.069Z,90.50
2022-09-13T10:44:53.200Z,90.50
2022-09-13T10:47:24.332Z,90.50
2022-09-13T10:49:53.066Z,90.70
2022-09-13T10:52:27.636Z,91.00
2022-09-13T10:54:55.662Z,90.50
2022-09-13T10:57:52.673Z,90.30
2022-09-13T11:00:35.035Z,90.30
2022-09-13T11:03:38.674Z,90.50
2022-09-13T11:06:34.716Z,90.60
2022-09-13T11:09:27.845Z,90.60
2022-09-13T11:12:19.678Z,90.80
2022-09-13T11:15:06.437Z,90.80
2022-09-13T11:17:51.662Z,90.80
2022-09-13T11:20:27.277Z,90.90
2022-09-13T11:22:56.843Z,91.20
2022-09-13T11:25:47.681Z,90.80
2022-09-13T11:28:49.826Z,90.80
2022-09-13T11:31:49.860Z,91.00
2022-09-13T11:34:37.869Z,91.00
2022-09-13T11:37:15.188Z,90.80
2022-09-13T11:39:50.129Z,90.70
2022-09-13T11:42:44.387Z,91.00
2022-09-13T11:45:21.827Z,91.20
2022-09-13T11:48:13.402Z,90.80
2022-09-13T11:51:07.476Z,91.30
2022-09-13T11:53:52.764Z,91.20
2022-09-13T11:56:38.275Z,91.10
2022-09-13T11:59:23.571Z,91.20
2022-09-13T12:01:55.996Z,91.30
2022-09-13T12:04:33.083Z,91.50
2022-09-13T12:07:07.315Z,91.60
2022-09-13T12:09:40.508Z,91.30
2022-09-13T12:12:13.892Z,91.40
2022-09-13T12:14:50.451Z,91.80
2022-09-13T12:17:41.816Z,91.30
2022-09-13T12:20:36.730Z,91.60
2022-09-13T12:23:11.120Z,91.20
2022-09-13T12:25:50.172Z,91.60
2022-09-13T12:28:23.291Z,91.20
2022-09-13T12:30:59.373Z,91.40
2022-09-13T12:33:26.154Z,91.90
2022-09-13T12:36:09.626Z,91.70
2022-09-13T12:39:15.002Z,91.40
2022-09-13T12:41:53.409Z,91.70
2022-09-13T12:44:41.103Z,91.40
2022-09-13T12:47:39.488Z,91.70
2022-09-13T12:50:44.125Z,91.40
2022-09-13T12:53:33.432Z,91.80
2022-09-13T12:56:09.549Z,91.60
2022-09-13T12:58:45.143Z,91.50
2022-09-13T13:01:19.915Z,91.80
2022-09-13T13:04:03.242Z,91.50
2022-09-13T13:08:59.893Z,91.50
2022-09-13T13:11:29.259Z,91.70
2022-09-13T13:14:02.268Z,91.80
2022-09-13T13:16:35.268Z,92.00
2022-09-13T13:19:04.067Z,91.50
2022-09-13T13:21:35.086Z,91.80
2022-09-13T13:24:27.733Z,93.20
2022-09-13T13:26:56.074Z,91.80
2022-09-13T13:29:31.200Z,92.60
2022-09-13T13:31:57.718Z,91.60
2022-09-13T13:34:24.223Z,92.10
2022-09-13T13:36:58.219Z,92.90
2022-09-13T13:39:27.877Z,93.20
2022-09-13T13:42:17.444Z,93.10
2022-09-13T13:44:43.936Z,91.60
2022-09-13T13:47:13.455Z,92.70
2022-09-13T13:49:40.212Z,91.80
2022-09-13T13:52:09.978Z,91.60
2022-09-13T13:54:42.914Z,91.60
2022-09-13T13:57:33.033Z,91.50
2022-09-13T14:00:19.634Z,92.30
2022-09-13T14:03:08.986Z,92.20
2022-09-13T14:06:10.357Z,91.80
2022-09-13T14:09:19.949Z,92.10
2022-09-13T14:12:16.202Z,93.10
2022-09-13T14:14:58.665Z,91.90
2022-09-13T14:17:40.182Z,93.00
2022-09-13T14:20:12.263Z,91.70
2022-09-13T14:22:38.804Z,92.00
2022-09-13T14:25:20.033Z,92.00
2022-09-13T14:27:48.642Z,91.90
2022-09-13T14:30:26.924Z,91.90
2022-09-13T14:32:57.734Z,91.70
2022-09-13T14:35:33.601Z,92.50
2022-09-13T14:38:33.442Z,92.00
2022-09-13T14:41:11.234Z,91.90
2022-09-13T14:43:37.785Z,92.20
2022-09-13T14:46:27.305Z,92.20
2022-09-13T14:49:02.024Z,91.70
2022-09-13T14:51:33.985Z,92.90
2022-09-13T14:54:10.965Z,91.80
2022-09-13T14:56:44.803Z,93.40
2022-09-13T14:59:21.826Z,92.00
2022-09-13T15:01:48.490Z,93.30
2022-09-13T15:04:18.482Z,92.10
2022-09-13T15:06:45.086Z,92.30
2022-09-13T15:09:11.633Z,92.10
2022-09-13T15:11:43.362Z,92.10
2022-09-13T15:14:25.527Z,92.00
2022-09-13T15:17:03.353Z,92.90
2022-09-13T15:19:52.457Z,92.60
2022-09-13T15:22:31.396Z,92.00
2022-09-13T15:25:00.292Z,93.90
2022-09-13T15:27:29.923Z,93.50
2022-09-13T15:30:03.125Z,92.90
2022-09-13T15:32:34.502Z,92.00
2022-09-13T15:35:02.292Z,92.20
2022-09-13T15:37:37.666Z,92.10
2022-09-13T15:40:16.326Z,92.30
2022-09-13T15:42:47.383Z,93.60
2022-09-13T15:47:41.172Z,92.30
2022-09-13T15:50:12.198Z,92.10
2022-09-13T15:52:38.729Z,92.40
2022-09-13T15:55:06.169Z,92.20
2022-09-13T15:57:33.122Z,93.40
2022-09-13T16:00:05.575Z,94.10
2022-09-13T16:02:35.550Z,92.20
2022-09-13T16:05:02.113Z,93.10
2022-09-13T16:07:28.635Z,92.60
2022-09-13T16:09:55.191Z,95.40
2022-09-13T16:17:25.290Z,92.10
2022-09-13T16:19:52.442Z,92.50
2022-09-13T16:22:18.961Z,93.30
2022-09-13T16:24:45.705Z,92.20
2022-09-13T16:27:14.840Z,92.50
2022-09-13T16:29:42.189Z,92.50
2022-09-13T16:32:08.807Z,92.30
2022-09-13T16:34:35.365Z,93.40
2022-09-13T16:37:02.107Z,92.20
2022-09-13T16:39:29.278Z,92.30
2022-09-13T16:41:55.854Z,92.40
2022-09-13T16:44:22.516Z,92.30
2022-09-13T16:46:49.227Z,93.20
2022-09-13T16:49:16.096Z,92.10
2022-09-13T16:51:42.709Z,92.20
2022-09-13T16:54:09.251Z,94.00
2022-09-13T16:56:35.845Z,92.60
2022-09-13T16:59:02.919Z,92.10
2022-09-13T17:01:30.239Z,92.10
2022-09-13T17:03:57.461Z,92.00
2022-09-13T17:06:25.618Z,92.00
2022-09-13T17:09:01.440Z,92.40
2022-09-13T17:11:31.109Z,92.00
2022-09-13T17:13:58.146Z,93.90
2022-09-13T17:16:34.682Z,95.10
2022-09-13T17:19:06.040Z,92.20
2022-09-13T17:21:33.745Z,92.60
2022-09-13T17:24:01.184Z,92.70
2022-09-13T17:26:27.809Z,94.60
2022-09-13T17:28:54.523Z,91.90
2022-09-13T17:31:21.290Z,92.10
2022-09-13T17:38:44.212Z,92.80
2022-09-13T17:41:14.076Z,95.10
2022-09-13T17:43:42.808Z,94.40
2022-09-13T17:46:14.404Z,93.50
2022-09-13T17:48:41.440Z,93.60
2022-09-13T17:51:11.510Z,95.60
2022-09-13T17:53:47.086Z,93.40
2022-09-13T17:56:18.919Z,93.20
2022-09-13T17:58:46.053Z,93.70
2022-09-13T18:01:13.291Z,93.70
2022-09-13T18:03:39.989Z,93.40
2022-09-13T18:06:08.895Z,93.00
2022-09-13T18:08:37.693Z,93.30
2022-09-13T18:11:14.221Z,93.30
2022-09-13T18:13:42.847Z,93.60
2022-09-13T18:16:21.263Z,93.70
2022-09-13T18:18:52.518Z,93.90
2022-09-13T18:21:21.947Z,93.90
2022-09-13T18:23:50.341Z,93.40
2022-09-13T18:26:20.149Z,93.90
2022-09-13T18:28:47.310Z,93.60
2022-09-13T18:31:18.088Z,94.90
2022-09-13T18:33:45.760Z,93.60
2022-09-13T18:36:18.019Z,93.50
2022-09-13T18:38:46.664Z,93.10
2022-09-13T18:41:18.622Z,92.80
2022-09-13T18:43:46.508Z,92.60
2022-09-13T18:46:17.981Z,92.30
2022-09-13T18:48:47.644Z,92.30
2022-09-13T18:51:16.798Z,92.20
2022-09-13T18:53:44.678Z,92.10
2022-09-13T18:56:14.186Z,92.10
2022-09-13T18:58:42.477Z,92.10
2022-09-13T19:01:10.910Z,92.10
2022-09-13T19:03:38.500Z,91.70
2022-09-13T19:06:19.741Z,91.80
2022-09-13T19:08:47.220Z,91.80
2022-09-13T19:11:35.201Z,91.40
2022-09-13T19:14:01.837Z,91.40
2022-09-13T19:16:28.426Z,91.10
2022-09-13T19:18:56.684Z,90.80
2022-09-13T19:21:32.331Z,90.40
2022-09-13T19:24:03.085Z,90.00
2022-09-13T19:26:38.877Z,89.20
2022-09-13T19:29:08.649Z,89.20
2022-09-13T19:31:38.518Z,88.70
2022-09-13T19:34:06.209Z,89.50
2022-09-13T19:36:34.911Z,88.00
2022-09-13T19:39:02.217Z,87.50
2022-09-13T19:41:30.400Z,87.40
2022-09-13T19:44:00.229Z,87.50
2022-09-13T19:46:31.350Z,88.30
2022-09-13T19:49:00.673Z,87.00
2022-09-13T19:51:38.431Z,87.20
2022-09-13T19:54:06.213Z,86.80
2022-09-13T19:56:36.814Z,87.00
2022-09-13T19:59:03.869Z,86.60
2022-09-13T20:01:35.758Z,86.30
2022-09-13T20:04:05.428Z,86.20
2022-09-13T20:06:40.088Z,85.80
2022-09-13T20:09:08.603Z,85.70
2022-09-13T20:11:38.780Z,85.40
2022-09-13T20:14:08.627Z,85.30
2022-09-13T20:16:37.175Z,85.10
2022-09-13T20:19:13.937Z,85.60
2022-09-13T20:21:51.199Z,84.80
2022-09-13T20:24:18.640Z,86.10
2022-09-13T20:26:45.222Z,85.90
2022-09-13T20:29:12.371Z,86.40
2022-09-13T20:31:39.057Z,86.20
2022-09-13T20:34:07.739Z,85.70
2022-09-13T20:36:36.477Z,85.10
2022-09-13T20:39:04.513Z,85.00
2022-09-13T20:41:31.724Z,85.30
2022-09-13T20:43:59.627Z,85.20
2022-09-13T20:46:27.035Z,85.10
2022-09-13T20:48:53.668Z,84.60
2022-09-13T20:51:23.159Z,84.80
2022-09-13T20:53:55.761Z,84.90
2022-09-13T20:56:23.372Z,85.40
2022-09-13T20:58:57.126Z,86.00
2022-09-13T21:01:24.727Z,85.90
2022-09-13T21:03:54.588Z,86.10
2022-09-13T21:06:23.480Z,85.90
2022-09-13T21:08:50.686Z,85.80
2022-09-13T21:11:33.788Z,85.70
2022-09-13T21:14:08.293Z,85.80
2022-09-13T21:16:38.840Z,86.10
2022-09-13T21:19:05.601Z,85.90
2022-09-13T21:21:35.165Z,86.00
2022-09-13T21:24:08.495Z,85.60
2022-09-13T21:26:35.387Z,86.00
2022-09-13T21:29:02.282Z,85.70
2022-09-13T21:31:32.386Z,85.60
2022-09-13T21:34:04.908Z,85.50
2022-09-13T21:36:34.526Z,85.60
2022-09-13T21:39:01.964Z,85.50
2022-09-13T21:41:29.827Z,85.50
2022-09-13T21:43:56.834Z,85.60
2022-09-13T21:46:29.653Z,85.40
2022-09-13T21:49:08.065Z,85.40
2022-09-13T21:51:40.473Z,85.60
2022-09-13T21:54:09.647Z,85.40
2022-09-13T21:56:39.693Z,85.50
2022-09-13T21:59:08.597Z,85.50
2022-09-13T22:01:38.852Z,85.40
2022-09-13T22:04:07.328Z,85.40
2022-09-13T22:06:37.087Z,85.60
2022-09-13T22:09:07.299Z,85.50
2022-09-13T22:11:40.000Z,85.50
2022-09-13T22:14:07.845Z,85.40
2022-09-13T22:16:37.134Z,85.50
2022-09-13T22:19:09.263Z,85.50
2022-09-13T22:21:38.936Z,85.40
2022-09-13T22:24:06.867Z,85.40
2022-09-13T22:26:35.859Z,85.50
2022-09-13T22:29:02.877Z,85.40
2022-09-13T22:31:34.891Z,85.10
2022-09-13T22:34:02.223Z,85.20
2022-09-13T22:36:29.143Z,85.30
2022-09-13T22:38:56.272Z,85.20
2022-09-13T22:41:28.828Z,85.20
2022-09-13T22:43:55.767Z,85.30
2022-09-13T22:46:31.185Z,85.10
2022-09-13T22:48:58.064Z,85.10
2022-09-13T22:51:25.096Z,85.00
2022-09-13T22:53:53.655Z,84.90
2022-09-13T22:56:26.305Z,84.90
2022-09-13T22:58:54.807Z,84.90
2022-09-13T23:01:22.793Z,84.90
2022-09-13T23:03:50.212Z,84.90
2022-09-13T23:06:20.012Z,84.90
2022-09-13T23:08:48.077Z,84.70
2022-09-13T23:11:18.929Z,84.90
2022-09-13T23:13:47.900Z,84.80
2022-09-13T23:16:20.081Z,84.80
2022-09-13T23:18:47.367Z,84.90
2022-09-13T23:21:16.507Z,85.00
2022-09-13T23:23:43.066Z,84.90
2022-09-13T23:26:12.542Z,84.80
2022-09-13T23:28:39.336Z,84.80
2022-09-13T23:31:10.056Z,84.90
2022-09-13T23:33:48.551Z,84.80
2022-09-13T23:36:17.977Z,84.60
2022-09-13T23:38:50.016Z,84.80
2022-09-13T23:41:17.951Z,84.50
2022-09-13T23:43:45.184Z,84.60
2022-09-13T23:46:11.826Z,84.50
2022-09-13T23:48:38.886Z,84.60
2022-09-13T23:51:08.043Z,84.60
2022-09-13T23:53:36.574Z,84.60
2022-09-13T23:56:04.564Z,84.50
2022-09-13T23:58:31.984Z,84.60
